sensor_id;sensor_type;location;lat;lon;timestamp;P1;durP1;ratioP1;P2;durP2;ratioP2
9934;SDS011;5006;41.828;23.478;2024-01-11T00:00:30;23.60;;;13.65;;
9934;SDS011;5006;41.828;23.478;2024-01-11T00:01:36;21.95;;;12.63;;
9934;SDS011;5006;41.828;23.478;2024-01-11T00:02:41;21.00;;;11.30;;
9934;SDS011;5006;41.828;23.478;2024-01-11T00:03:47;18.50;;;11.40;;
9934;SDS011;5006;41.828;23.478;2024-01-11T00:04:53;15.77;;;10.98;;
9934;SDS011;5006;41.828;23.478;2024-01-11T00:06:00;18.30;;;10.95;;
9934;SDS011;5006;41.828;23.478;2024-01-11T00:07:06;19.60;;;11.75;;
9934;SDS011;5006;41.828;23.478;2024-01-11T00:08:31;16.10;;;9.88;;
9934;SDS011;5006;41.828;23.478;2024-01-11T00:09:38;19.30;;;10.45;;
9934;SDS011;5006;41.828;23.478;2024-01-11T00:10:45;17.00;;;10.23;;
9934;SDS011;5006;41.828;23.478;2024-01-11T00:11:53;19.65;;;11.43;;
9934;SDS011;5006;41.828;23.478;2024-01-11T00:12:59;20.73;;;12.68;;
9934;SDS011;5006;41.828;23.478;2024-01-11T00:14:05;20.92;;;12.43;;
9934;SDS011;5006;41.828;23.478;2024-01-11T00:15:12;19.52;;;12.77;;
9934;SDS011;5006;41.828;23.478;2024-01-11T00:16:18;20.33;;;13.15;;
9934;SDS011;5006;41.828;23.478;2024-01-11T00:17:24;23.75;;;14.02;;
9934;SDS011;5006;41.828;23.478;2024-01-11T00:18:30;19.85;;;10.23;;
9934;SDS011;5006;41.828;23.478;2024-01-11T00:19:37;13.50;;;8.30;;
9934;SDS011;5006;41.828;23.478;2024-01-11T00:20:42;13.52;;;6.78;;
9934;SDS011;5006;41.828;23.478;2024-01-11T00:21:48;9.93;;;5.10;;
9934;SDS011;5006;41.828;23.478;2024-01-11T00:22:53;11.57;;;5.85;;
9934;SDS011;5006;41.828;23.478;2024-01-11T00:23:59;6.97;;;3.95;;
9934;SDS011;5006;41.828;23.478;2024-01-11T00:25:05;6.93;;;3.83;;
9934;SDS011;5006;41.828;23.478;2024-01-11T00:26:13;7.50;;;3.72;;
9934;SDS011;5006;41.828;23.478;2024-01-11T00:27:20;5.10;;;3.30;;
9934;SDS011;5006;41.828;23.478;2024-01-11T00:28:26;4.57;;;2.80;;
9934;SDS011;5006;41.828;23.478;2024-01-11T00:29:32;4.43;;;2.92;;
9934;SDS011;5006;41.828;23.478;2024-01-11T00:30:37;4.53;;;2.58;;
9934;SDS011;5006;41.828;23.478;2024-01-11T00:31:44;5.57;;;3.30;;
9934;SDS011;5006;41.828;23.478;2024-01-11T00:32:50;5.68;;;3.28;;
9934;SDS011;5006;41.828;23.478;2024-01-11T00:33:57;7.07;;;3.47;;
9934;SDS011;5006;41.828;23.478;2024-01-11T00:35:03;5.20;;;3.30;;
9934;SDS011;5006;41.828;23.478;2024-01-11T00:36:10;5.82;;;3.40;;
9934;SDS011;5006;41.828;23.478;2024-01-11T00:37:16;5.65;;;3.85;;
9934;SDS011;5006;41.828;23.478;2024-01-11T00:38:22;5.07;;;3.45;;
9934;SDS011;5006;41.828;23.478;2024-01-11T00:39:27;13.80;;;3.60;;
9934;SDS011;5006;41.828;23.478;2024-01-11T00:40:33;5.78;;;3.10;;
9934;SDS011;5006;41.828;23.478;2024-01-11T00:41:39;6.75;;;3.08;;
9934;SDS011;5006;41.828;23.478;2024-01-11T00:42:48;10.02;;;3.20;;
9934;SDS011;5006;41.828;23.478;2024-01-11T00:43:53;7.38;;;3.00;;
9934;SDS011;5006;41.828;23.478;2024-01-11T00:45:00;7.35;;;2.70;;
9934;SDS011;5006;41.828;23.478;2024-01-11T00:46:05;4.85;;;2.92;;
9934;SDS011;5006;41.828;23.478;2024-01-11T00:47:12;4.82;;;2.90;;
9934;SDS011;5006;41.828;23.478;2024-01-11T00:48:18;6.63;;;2.90;;
9934;SDS011;5006;41.828;23.478;2024-01-11T00:49:25;9.38;;;3.30;;
9934;SDS011;5006;41.828;23.478;2024-01-11T00:50:31;7.65;;;3.33;;
9934;SDS011;5006;41.828;23.478;2024-01-11T00:51:37;8.60;;;4.30;;
9934;SDS011;5006;41.828;23.478;2024-01-11T00:52:42;7.55;;;4.60;;
9934;SDS011;5006;41.828;23.478;2024-01-11T00:53:48;6.57;;;4.10;;
9934;SDS011;5006;41.828;23.478;2024-01-11T00:54:53;9.65;;;5.95;;
9934;SDS011;5006;41.828;23.478;2024-01-11T00:56:00;9.63;;;6.20;;
9934;SDS011;5006;41.828;23.478;2024-01-11T00:57:06;10.10;;;6.32;;
9934;SDS011;5006;41.828;23.478;2024-01-11T00:58:13;8.65;;;6.10;;
9934;SDS011;5006;41.828;23.478;2024-01-11T00:59:19;14.15;;;6.97;;
9934;SDS011;5006;41.828;23.478;2024-01-11T01:00:26;9.02;;;5.72;;
9934;SDS011;5006;41.828;23.478;2024-01-11T01:01:32;9.65;;;6.00;;
9934;SDS011;5006;41.828;23.478;2024-01-11T01:02:38;8.82;;;4.97;;
9934;SDS011;5006;41.828;23.478;2024-01-11T01:03:43;11.40;;;7.50;;
9934;SDS011;5006;41.828;23.478;2024-01-11T01:04:49;13.48;;;9.23;;
9934;SDS011;5006;41.828;23.478;2024-01-11T01:05:54;13.32;;;9.48;;
9934;SDS011;5006;41.828;23.478;2024-01-11T01:07:02;14.32;;;8.73;;
9934;SDS011;5006;41.828;23.478;2024-01-11T01:08:08;15.48;;;9.52;;
9934;SDS011;5006;41.828;23.478;2024-01-11T01:09:15;14.02;;;8.57;;
9934;SDS011;5006;41.828;23.478;2024-01-11T01:10:21;13.15;;;8.20;;
9934;SDS011;5006;41.828;23.478;2024-01-11T01:11:27;17.25;;;11.18;;
9934;SDS011;5006;41.828;23.478;2024-01-11T01:12:32;15.65;;;9.13;;
9934;SDS011;5006;41.828;23.478;2024-01-11T01:13:39;15.10;;;9.02;;
9934;SDS011;5006;41.828;23.478;2024-01-11T01:14:45;12.80;;;7.50;;
9934;SDS011;5006;41.828;23.478;2024-01-11T01:15:52;12.93;;;7.88;;
9934;SDS011;5006;41.828;23.478;2024-01-11T01:16:58;9.77;;;6.65;;
9934;SDS011;5006;41.828;23.478;2024-01-11T01:18:04;12.70;;;8.38;;
9934;SDS011;5006;41.828;23.478;2024-01-11T01:19:10;15.88;;;7.70;;
9934;SDS011;5006;41.828;23.478;2024-01-11T01:20:16;12.43;;;8.20;;
9934;SDS011;5006;41.828;23.478;2024-01-11T01:21:21;11.85;;;8.05;;
9934;SDS011;5006;41.828;23.478;2024-01-11T01:22:28;12.50;;;8.52;;
9934;SDS011;5006;41.828;23.478;2024-01-11T01:23:33;11.63;;;7.50;;
9934;SDS011;5006;41.828;23.478;2024-01-11T01:24:40;12.00;;;6.88;;
9934;SDS011;5006;41.828;23.478;2024-01-11T01:25:45;10.98;;;7.40;;
9934;SDS011;5006;41.828;23.478;2024-01-11T01:26:51;12.55;;;7.32;;
9934;SDS011;5006;41.828;23.478;2024-01-11T01:27:56;11.23;;;7.95;;
9934;SDS011;5006;41.828;23.478;2024-01-11T01:29:04;9.52;;;6.63;;
9934;SDS011;5006;41.828;23.478;2024-01-11T01:30:10;9.93;;;4.75;;
9934;SDS011;5006;41.828;23.478;2024-01-11T01:31:17;5.65;;;3.63;;
9934;SDS011;5006;41.828;23.478;2024-01-11T01:32:23;5.55;;;3.83;;
9934;SDS011;5006;41.828;23.478;2024-01-11T01:33:30;10.18;;;4.72;;
9934;SDS011;5006;41.828;23.478;2024-01-11T01:34:36;7.95;;;4.90;;
9934;SDS011;5006;41.828;23.478;2024-01-11T01:35:43;9.40;;;4.65;;
9934;SDS011;5006;41.828;23.478;2024-01-11T01:36:48;7.70;;;5.00;;
9934;SDS011;5006;41.828;23.478;2024-01-11T01:37:54;9.25;;;4.50;;
9934;SDS011;5006;41.828;23.478;2024-01-11T01:39:00;7.63;;;4.60;;
9934;SDS011;5006;41.828;23.478;2024-01-11T01:40:05;5.70;;;4.20;;
9934;SDS011;5006;41.828;23.478;2024-01-11T01:41:13;8.07;;;4.53;;
9934;SDS011;5006;41.828;23.478;2024-01-11T01:42:18;8.88;;;5.53;;
9934;SDS011;5006;41.828;23.478;2024-01-11T01:43:25;11.73;;;6.50;;
9934;SDS011;5006;41.828;23.478;2024-01-11T01:44:32;11.57;;;6.95;;
9934;SDS011;5006;41.828;23.478;2024-01-11T01:45:39;10.23;;;6.32;;
9934;SDS011;5006;41.828;23.478;2024-01-11T01:46:45;10.43;;;6.80;;
9934;SDS011;5006;41.828;23.478;2024-01-11T01:47:53;9.98;;;6.18;;
9934;SDS011;5006;41.828;23.478;2024-01-11T01:49:00;10.32;;;6.82;;
9934;SDS011;5006;41.828;23.478;2024-01-11T01:50:07;11.07;;;7.78;;
9934;SDS011;5006;41.828;23.478;2024-01-11T01:51:14;12.05;;;7.43;;
9934;SDS011;5006;41.828;23.478;2024-01-11T01:52:21;10.48;;;6.85;;
9934;SDS011;5006;41.828;23.478;2024-01-11T01:53:27;11.63;;;7.40;;
9934;SDS011;5006;41.828;23.478;2024-01-11T01:54:34;12.27;;;7.07;;
9934;SDS011;5006;41.828;23.478;2024-01-11T01:55:40;8.98;;;6.13;;
9934;SDS011;5006;41.828;23.478;2024-01-11T01:56:47;12.60;;;7.07;;
9934;SDS011;5006;41.828;23.478;2024-01-11T01:57:53;9.75;;;5.57;;
9934;SDS011;5006;41.828;23.478;2024-01-11T01:59:01;10.98;;;5.68;;
9934;SDS011;5006;41.828;23.478;2024-01-11T02:00:10;10.60;;;5.78;;
9934;SDS011;5006;41.828;23.478;2024-01-11T02:01:17;12.73;;;5.15;;
9934;SDS011;5006;41.828;23.478;2024-01-11T02:02:26;7.45;;;3.95;;
9934;SDS011;5006;41.828;23.478;2024-01-11T02:03:33;7.45;;;4.40;;
9934;SDS011;5006;41.828;23.478;2024-01-11T02:04:41;10.02;;;5.13;;
9934;SDS011;5006;41.828;23.478;2024-01-11T02:05:46;7.65;;;4.85;;
9934;SDS011;5006;41.828;23.478;2024-01-11T02:06:53;9.15;;;5.90;;
9934;SDS011;5006;41.828;23.478;2024-01-11T02:07:59;13.13;;;7.38;;
9934;SDS011;5006;41.828;23.478;2024-01-11T02:09:10;9.15;;;5.57;;
9934;SDS011;5006;41.828;23.478;2024-01-11T02:10:16;10.32;;;6.82;;
9934;SDS011;5006;41.828;23.478;2024-01-11T02:11:23;9.10;;;5.47;;
9934;SDS011;5006;41.828;23.478;2024-01-11T02:12:29;8.63;;;5.70;;
9934;SDS011;5006;41.828;23.478;2024-01-11T02:13:37;9.70;;;4.50;;
9934;SDS011;5006;41.828;23.478;2024-01-11T02:14:42;7.78;;;4.88;;
9934;SDS011;5006;41.828;23.478;2024-01-11T02:15:51;8.27;;;4.32;;
9934;SDS011;5006;41.828;23.478;2024-01-11T02:16:56;8.77;;;3.70;;
9934;SDS011;5006;41.828;23.478;2024-01-11T02:18:03;7.82;;;3.53;;
9934;SDS011;5006;41.828;23.478;2024-01-11T02:19:10;5.65;;;3.70;;
9934;SDS011;5006;41.828;23.478;2024-01-11T02:20:19;8.23;;;5.05;;
9934;SDS011;5006;41.828;23.478;2024-01-11T02:21:24;12.55;;;6.93;;
9934;SDS011;5006;41.828;23.478;2024-01-11T02:22:34;15.25;;;6.45;;
9934;SDS011;5006;41.828;23.478;2024-01-11T02:23:43;10.35;;;6.10;;
9934;SDS011;5006;41.828;23.478;2024-01-11T02:24:54;12.38;;;5.90;;
9934;SDS011;5006;41.828;23.478;2024-01-11T02:26:02;20.73;;;13.10;;
9934;SDS011;5006;41.828;23.478;2024-01-11T02:27:09;24.38;;;12.30;;
9934;SDS011;5006;41.828;23.478;2024-01-11T02:28:15;19.50;;;12.02;;
9934;SDS011;5006;41.828;23.478;2024-01-11T02:29:22;12.55;;;8.10;;
9934;SDS011;5006;41.828;23.478;2024-01-11T02:30:27;13.57;;;8.32;;
9934;SDS011;5006;41.828;23.478;2024-01-11T02:31:34;7.25;;;4.82;;
9934;SDS011;5006;41.828;23.478;2024-01-11T02:32:39;8.82;;;5.43;;
9934;SDS011;5006;41.828;23.478;2024-01-11T02:33:46;6.90;;;4.95;;
9934;SDS011;5006;41.828;23.478;2024-01-11T02:34:52;9.82;;;6.50;;
9934;SDS011;5006;41.828;23.478;2024-01-11T02:35:59;12.32;;;7.57;;
9934;SDS011;5006;41.828;23.478;2024-01-11T02:37:04;14.23;;;8.70;;
9934;SDS011;5006;41.828;23.478;2024-01-11T02:38:11;12.55;;;8.00;;
9934;SDS011;5006;41.828;23.478;2024-01-11T02:39:18;15.13;;;7.30;;
9934;SDS011;5006;41.828;23.478;2024-01-11T02:40:26;9.85;;;6.10;;
9934;SDS011;5006;41.828;23.478;2024-01-11T02:41:32;12.13;;;7.82;;
9934;SDS011;5006;41.828;23.478;2024-01-11T02:42:39;12.43;;;6.28;;
9934;SDS011;5006;41.828;23.478;2024-01-11T02:43:46;8.20;;;5.18;;
9934;SDS011;5006;41.828;23.478;2024-01-11T02:44:53;12.50;;;5.53;;
9934;SDS011;5006;41.828;23.478;2024-01-11T02:45:59;10.93;;;5.85;;
9934;SDS011;5006;41.828;23.478;2024-01-11T02:47:06;9.43;;;4.47;;
9934;SDS011;5006;41.828;23.478;2024-01-11T02:48:11;9.48;;;4.18;;
9934;SDS011;5006;41.828;23.478;2024-01-11T02:49:18;11.07;;;4.40;;
9934;SDS011;5006;41.828;23.478;2024-01-11T02:50:24;10.57;;;4.93;;
9934;SDS011;5006;41.828;23.478;2024-01-11T02:51:30;7.43;;;4.43;;
9934;SDS011;5006;41.828;23.478;2024-01-11T02:52:36;11.13;;;6.22;;
9934;SDS011;5006;41.828;23.478;2024-01-11T02:53:43;19.23;;;6.82;;
9934;SDS011;5006;41.828;23.478;2024-01-11T02:54:48;11.63;;;6.05;;
9934;SDS011;5006;41.828;23.478;2024-01-11T02:55:55;18.48;;;9.07;;
9934;SDS011;5006;41.828;23.478;2024-01-11T02:57:03;13.18;;;7.60;;
9934;SDS011;5006;41.828;23.478;2024-01-11T02:58:08;12.77;;;6.68;;
9934;SDS011;5006;41.828;23.478;2024-01-11T02:59:15;22.05;;;11.68;;
9934;SDS011;5006;41.828;23.478;2024-01-11T03:00:21;27.67;;;17.13;;
9934;SDS011;5006;41.828;23.478;2024-01-11T03:01:27;29.42;;;19.40;;
9934;SDS011;5006;41.828;23.478;2024-01-11T03:02:32;16.25;;;10.10;;
9934;SDS011;5006;41.828;23.478;2024-01-11T03:03:38;8.77;;;5.53;;
9934;SDS011;5006;41.828;23.478;2024-01-11T03:04:43;16.90;;;11.13;;
9934;SDS011;5006;41.828;23.478;2024-01-11T03:05:49;17.13;;;10.77;;
9934;SDS011;5006;41.828;23.478;2024-01-11T03:06:54;14.32;;;9.95;;
9934;SDS011;5006;41.828;23.478;2024-01-11T03:08:00;11.02;;;6.90;;
9934;SDS011;5006;41.828;23.478;2024-01-11T03:09:06;19.13;;;11.48;;
9934;SDS011;5006;41.828;23.478;2024-01-11T03:10:13;17.60;;;11.13;;
9934;SDS011;5006;41.828;23.478;2024-01-11T03:11:20;12.15;;;7.88;;
9934;SDS011;5006;41.828;23.478;2024-01-11T03:12:27;11.00;;;7.28;;
9934;SDS011;5006;41.828;23.478;2024-01-11T03:13:33;9.40;;;5.80;;
9934;SDS011;5006;41.828;23.478;2024-01-11T03:14:40;8.95;;;5.28;;
9934;SDS011;5006;41.828;23.478;2024-01-11T03:15:45;7.25;;;5.03;;
9934;SDS011;5006;41.828;23.478;2024-01-11T03:16:53;7.25;;;5.38;;
9934;SDS011;5006;41.828;23.478;2024-01-11T03:17:58;8.65;;;5.43;;
9934;SDS011;5006;41.828;23.478;2024-01-11T03:19:05;8.35;;;4.63;;
9934;SDS011;5006;41.828;23.478;2024-01-11T03:20:10;10.52;;;5.43;;
9934;SDS011;5006;41.828;23.478;2024-01-11T03:21:16;10.30;;;5.45;;
9934;SDS011;5006;41.828;23.478;2024-01-11T03:22:22;9.32;;;5.43;;
9934;SDS011;5006;41.828;23.478;2024-01-11T03:23:29;17.05;;;8.30;;
9934;SDS011;5006;41.828;23.478;2024-01-11T03:24:37;17.23;;;8.75;;
9934;SDS011;5006;41.828;23.478;2024-01-11T03:25:45;17.70;;;8.93;;
9934;SDS011;5006;41.828;23.478;2024-01-11T03:26:51;17.58;;;7.30;;
9934;SDS011;5006;41.828;23.478;2024-01-11T03:27:58;33.83;;;9.05;;
9934;SDS011;5006;41.828;23.478;2024-01-11T03:29:04;25.10;;;7.60;;
9934;SDS011;5006;41.828;23.478;2024-01-11T03:30:12;21.63;;;6.25;;
9934;SDS011;5006;41.828;23.478;2024-01-11T03:31:17;16.17;;;6.97;;
9934;SDS011;5006;41.828;23.478;2024-01-11T03:32:24;14.57;;;6.35;;
9934;SDS011;5006;41.828;23.478;2024-01-11T03:33:30;10.10;;;4.90;;
9934;SDS011;5006;41.828;23.478;2024-01-11T03:34:36;7.82;;;3.90;;
9934;SDS011;5006;41.828;23.478;2024-01-11T03:35:41;7.18;;;3.80;;
9934;SDS011;5006;41.828;23.478;2024-01-11T03:36:48;6.47;;;3.78;;
9934;SDS011;5006;41.828;23.478;2024-01-11T03:37:53;6.95;;;3.30;;
9934;SDS011;5006;41.828;23.478;2024-01-11T03:38:59;8.40;;;3.40;;
9934;SDS011;5006;41.828;23.478;2024-01-11T03:40:06;6.68;;;3.33;;
9934;SDS011;5006;41.828;23.478;2024-01-11T03:41:12;5.70;;;3.30;;
9934;SDS011;5006;41.828;23.478;2024-01-11T03:42:18;6.28;;;3.53;;
9934;SDS011;5006;41.828;23.478;2024-01-11T03:43:25;7.43;;;4.35;;
9934;SDS011;5006;41.828;23.478;2024-01-11T03:44:31;7.38;;;5.22;;
9934;SDS011;5006;41.828;23.478;2024-01-11T03:45:37;7.88;;;3.63;;
9934;SDS011;5006;41.828;23.478;2024-01-11T03:46:43;6.32;;;4.03;;
9934;SDS011;5006;41.828;23.478;2024-01-11T03:47:49;5.25;;;3.60;;
9934;SDS011;5006;41.828;23.478;2024-01-11T03:48:55;5.30;;;3.70;;
9934;SDS011;5006;41.828;23.478;2024-01-11T03:50:01;6.40;;;3.65;;
9934;SDS011;5006;41.828;23.478;2024-01-11T03:51:08;7.03;;;3.63;;
9934;SDS011;5006;41.828;23.478;2024-01-11T03:52:14;8.25;;;4.00;;
9934;SDS011;5006;41.828;23.478;2024-01-11T03:53:20;7.25;;;3.90;;
9934;SDS011;5006;41.828;23.478;2024-01-11T03:54:27;9.32;;;6.03;;
9934;SDS011;5006;41.828;23.478;2024-01-11T03:55:32;10.13;;;6.82;;
9934;SDS011;5006;41.828;23.478;2024-01-11T03:56:38;12.43;;;8.50;;
9934;SDS011;5006;41.828;23.478;2024-01-11T03:57:46;12.63;;;8.15;;
9934;SDS011;5006;41.828;23.478;2024-01-11T03:58:52;15.65;;;9.48;;
9934;SDS011;5006;41.828;23.478;2024-01-11T03:59:57;15.45;;;10.73;;
9934;SDS011;5006;41.828;23.478;2024-01-11T04:01:03;16.50;;;10.70;;
9934;SDS011;5006;41.828;23.478;2024-01-11T04:02:09;14.85;;;9.82;;
9934;SDS011;5006;41.828;23.478;2024-01-11T04:03:14;14.98;;;9.82;;
9934;SDS011;5006;41.828;23.478;2024-01-11T04:04:20;15.80;;;9.65;;
9934;SDS011;5006;41.828;23.478;2024-01-11T04:05:26;13.07;;;8.88;;
9934;SDS011;5006;41.828;23.478;2024-01-11T04:06:32;13.52;;;9.35;;
9934;SDS011;5006;41.828;23.478;2024-01-11T04:07:38;12.52;;;8.55;;
9934;SDS011;5006;41.828;23.478;2024-01-11T04:08:45;13.20;;;9.23;;
9934;SDS011;5006;41.828;23.478;2024-01-11T04:09:50;13.00;;;8.75;;
9934;SDS011;5006;41.828;23.478;2024-01-11T04:10:56;13.80;;;6.90;;
9934;SDS011;5006;41.828;23.478;2024-01-11T04:12:01;10.10;;;6.78;;
9934;SDS011;5006;41.828;23.478;2024-01-11T04:13:10;9.02;;;5.82;;
9934;SDS011;5006;41.828;23.478;2024-01-11T04:14:15;8.68;;;5.38;;
9934;SDS011;5006;41.828;23.478;2024-01-11T04:15:21;9.27;;;6.15;;
9934;SDS011;5006;41.828;23.478;2024-01-11T04:16:26;10.80;;;6.43;;
9934;SDS011;5006;41.828;23.478;2024-01-11T04:17:32;11.27;;;7.10;;
9934;SDS011;5006;41.828;23.478;2024-01-11T04:18:37;11.25;;;7.70;;
9934;SDS011;5006;41.828;23.478;2024-01-11T04:19:44;12.07;;;7.35;;
9934;SDS011;5006;41.828;23.478;2024-01-11T04:20:49;12.15;;;7.78;;
9934;SDS011;5006;41.828;23.478;2024-01-11T04:21:55;14.35;;;7.88;;
9934;SDS011;5006;41.828;23.478;2024-01-11T04:23:00;14.85;;;8.77;;
9934;SDS011;5006;41.828;23.478;2024-01-11T04:24:06;14.15;;;9.65;;
9934;SDS011;5006;41.828;23.478;2024-01-11T04:25:12;14.98;;;10.23;;
9934;SDS011;5006;41.828;23.478;2024-01-11T04:26:17;14.00;;;8.93;;
9934;SDS011;5006;41.828;23.478;2024-01-11T04:27:24;16.75;;;10.63;;
9934;SDS011;5006;41.828;23.478;2024-01-11T04:28:32;20.20;;;10.23;;
9934;SDS011;5006;41.828;23.478;2024-01-11T04:29:38;14.68;;;9.23;;
9934;SDS011;5006;41.828;23.478;2024-01-11T04:30:44;14.38;;;8.93;;
9934;SDS011;5006;41.828;23.478;2024-01-11T04:31:50;14.45;;;8.93;;
9934;SDS011;5006;41.828;23.478;2024-01-11T04:32:56;14.07;;;8.73;;
9934;SDS011;5006;41.828;23.478;2024-01-11T04:34:03;15.18;;;9.18;;
9934;SDS011;5006;41.828;23.478;2024-01-11T04:35:09;17.15;;;9.88;;
9934;SDS011;5006;41.828;23.478;2024-01-11T04:36:16;15.93;;;8.50;;
9934;SDS011;5006;41.828;23.478;2024-01-11T04:37:23;15.90;;;8.35;;
9934;SDS011;5006;41.828;23.478;2024-01-11T04:38:29;14.32;;;7.80;;
9934;SDS011;5006;41.828;23.478;2024-01-11T04:39:35;13.10;;;7.40;;
9934;SDS011;5006;41.828;23.478;2024-01-11T04:40:40;14.55;;;7.95;;
9934;SDS011;5006;41.828;23.478;2024-01-11T04:41:47;15.65;;;9.30;;
9934;SDS011;5006;41.828;23.478;2024-01-11T04:42:53;17.48;;;9.05;;
9934;SDS011;5006;41.828;23.478;2024-01-11T04:44:00;15.68;;;8.70;;
9934;SDS011;5006;41.828;23.478;2024-01-11T04:45:06;14.80;;;8.48;;
9934;SDS011;5006;41.828;23.478;2024-01-11T04:46:14;18.02;;;8.07;;
9934;SDS011;5006;41.828;23.478;2024-01-11T04:47:21;16.90;;;8.68;;
9934;SDS011;5006;41.828;23.478;2024-01-11T04:48:27;15.73;;;8.90;;
9934;SDS011;5006;41.828;23.478;2024-01-11T04:49:32;21.92;;;9.27;;
9934;SDS011;5006;41.828;23.478;2024-01-11T04:50:39;20.45;;;9.75;;
9934;SDS011;5006;41.828;23.478;2024-01-11T04:51:44;23.55;;;9.30;;
9934;SDS011;5006;41.828;23.478;2024-01-11T04:52:50;16.85;;;9.27;;
9934;SDS011;5006;41.828;23.478;2024-01-11T04:53:55;16.27;;;9.27;;
9934;SDS011;5006;41.828;23.478;2024-01-11T04:55:01;15.63;;;8.98;;
9934;SDS011;5006;41.828;23.478;2024-01-11T04:56:09;15.27;;;9.20;;
9934;SDS011;5006;41.828;23.478;2024-01-11T04:57:15;14.23;;;8.40;;
9934;SDS011;5006;41.828;23.478;2024-01-11T04:58:21;15.18;;;8.73;;
9934;SDS011;5006;41.828;23.478;2024-01-11T04:59:29;14.88;;;9.00;;
9934;SDS011;5006;41.828;23.478;2024-01-11T05:00:35;15.18;;;8.93;;
9934;SDS011;5006;41.828;23.478;2024-01-11T05:01:41;18.30;;;9.30;;
9934;SDS011;5006;41.828;23.478;2024-01-11T05:02:48;15.60;;;8.60;;
9934;SDS011;5006;41.828;23.478;2024-01-11T05:03:53;12.18;;;8.25;;
9934;SDS011;5006;41.828;23.478;2024-01-11T05:05:00;13.88;;;8.60;;
9934;SDS011;5006;41.828;23.478;2024-01-11T05:06:05;16.60;;;9.50;;
9934;SDS011;5006;41.828;23.478;2024-01-11T05:07:12;15.90;;;8.52;;
9934;SDS011;5006;41.828;23.478;2024-01-11T05:08:17;14.50;;;9.38;;
9934;SDS011;5006;41.828;23.478;2024-01-11T05:09:23;15.18;;;8.95;;
9934;SDS011;5006;41.828;23.478;2024-01-11T05:10:30;14.73;;;8.43;;
9934;SDS011;5006;41.828;23.478;2024-01-11T05:11:36;13.98;;;8.90;;
9934;SDS011;5006;41.828;23.478;2024-01-11T05:12:41;14.20;;;8.70;;
9934;SDS011;5006;41.828;23.478;2024-01-11T05:13:48;12.52;;;8.02;;
9934;SDS011;5006;41.828;23.478;2024-01-11T05:14:56;18.45;;;8.07;;
9934;SDS011;5006;41.828;23.478;2024-01-11T05:16:02;11.50;;;7.25;;
9934;SDS011;5006;41.828;23.478;2024-01-11T05:17:08;10.82;;;6.47;;
9934;SDS011;5006;41.828;23.478;2024-01-11T05:18:14;11.25;;;6.80;;
9934;SDS011;5006;41.828;23.478;2024-01-11T05:19:19;10.85;;;7.53;;
9934;SDS011;5006;41.828;23.478;2024-01-11T05:20:25;11.30;;;8.30;;
9934;SDS011;5006;41.828;23.478;2024-01-11T05:21:30;12.38;;;7.10;;
9934;SDS011;5006;41.828;23.478;2024-01-11T05:22:36;7.35;;;5.75;;
9934;SDS011;5006;41.828;23.478;2024-01-11T05:23:42;9.60;;;6.38;;
9934;SDS011;5006;41.828;23.478;2024-01-11T05:24:47;10.00;;;6.78;;
9934;SDS011;5006;41.828;23.478;2024-01-11T05:25:54;14.07;;;8.25;;
9934;SDS011;5006;41.828;23.478;2024-01-11T05:26:59;11.70;;;8.65;;
9934;SDS011;5006;41.828;23.478;2024-01-11T05:28:06;13.75;;;9.10;;
9934;SDS011;5006;41.828;23.478;2024-01-11T05:29:12;18.08;;;11.65;;
9934;SDS011;5006;41.828;23.478;2024-01-11T05:30:21;17.52;;;10.82;;
9934;SDS011;5006;41.828;23.478;2024-01-11T05:31:26;14.70;;;10.40;;
9934;SDS011;5006;41.828;23.478;2024-01-11T05:32:32;14.93;;;10.77;;
9934;SDS011;5006;41.828;23.478;2024-01-11T05:33:38;13.02;;;8.55;;
9934;SDS011;5006;41.828;23.478;2024-01-11T05:34:45;13.32;;;7.90;;
9934;SDS011;5006;41.828;23.478;2024-01-11T05:35:50;11.90;;;7.50;;
9934;SDS011;5006;41.828;23.478;2024-01-11T05:36:58;11.15;;;8.13;;
9934;SDS011;5006;41.828;23.478;2024-01-11T05:38:04;11.65;;;7.55;;
9934;SDS011;5006;41.828;23.478;2024-01-11T05:39:11;10.43;;;7.38;;
9934;SDS011;5006;41.828;23.478;2024-01-11T05:40:17;12.45;;;7.15;;
9934;SDS011;5006;41.828;23.478;2024-01-11T05:41:23;11.68;;;7.82;;
9934;SDS011;5006;41.828;23.478;2024-01-11T05:42:29;10.88;;;7.95;;
9934;SDS011;5006;41.828;23.478;2024-01-11T05:43:37;12.68;;;7.95;;
9934;SDS011;5006;41.828;23.478;2024-01-11T05:44:43;13.80;;;9.07;;
9934;SDS011;5006;41.828;23.478;2024-01-11T05:45:53;12.90;;;9.48;;
9934;SDS011;5006;41.828;23.478;2024-01-11T05:46:58;14.82;;;10.35;;
9934;SDS011;5006;41.828;23.478;2024-01-11T05:48:06;16.75;;;10.52;;
9934;SDS011;5006;41.828;23.478;2024-01-11T05:49:11;15.00;;;9.45;;
9934;SDS011;5006;41.828;23.478;2024-01-11T05:50:17;17.08;;;9.68;;
9934;SDS011;5006;41.828;23.478;2024-01-11T05:51:22;15.75;;;9.90;;
9934;SDS011;5006;41.828;23.478;2024-01-11T05:52:28;14.13;;;9.77;;
9934;SDS011;5006;41.828;23.478;2024-01-11T05:53:33;12.25;;;9.20;;
9934;SDS011;5006;41.828;23.478;2024-01-11T05:54:40;15.18;;;10.20;;
9934;SDS011;5006;41.828;23.478;2024-01-11T05:55:45;17.02;;;10.55;;
9934;SDS011;5006;41.828;23.478;2024-01-11T05:56:51;15.85;;;10.80;;
9934;SDS011;5006;41.828;23.478;2024-01-11T05:58:00;18.05;;;11.90;;
9934;SDS011;5006;41.828;23.478;2024-01-11T05:59:07;21.13;;;14.52;;
9934;SDS011;5006;41.828;23.478;2024-01-11T06:00:12;66.00;;;38.30;;
9934;SDS011;5006;41.828;23.478;2024-01-11T06:01:21;239.40;;;110.97;;
9934;SDS011;5006;41.828;23.478;2024-01-11T06:02:26;198.95;;;96.25;;
9934;SDS011;5006;41.828;23.478;2024-01-11T06:03:33;154.23;;;76.72;;
9934;SDS011;5006;41.828;23.478;2024-01-11T06:04:39;135.65;;;69.22;;
9934;SDS011;5006;41.828;23.478;2024-01-11T06:05:45;137.32;;;75.38;;
9934;SDS011;5006;41.828;23.478;2024-01-11T06:06:52;142.77;;;80.28;;
9934;SDS011;5006;41.828;23.478;2024-01-11T06:07:58;157.63;;;85.55;;
9934;SDS011;5006;41.828;23.478;2024-01-11T06:09:04;163.13;;;90.43;;
9934;SDS011;5006;41.828;23.478;2024-01-11T06:10:10;161.07;;;87.65;;
9934;SDS011;5006;41.828;23.478;2024-01-11T06:11:15;163.27;;;91.80;;
9934;SDS011;5006;41.828;23.478;2024-01-11T06:12:22;155.15;;;89.35;;
9934;SDS011;5006;41.828;23.478;2024-01-11T06:13:27;163.30;;;90.22;;
9934;SDS011;5006;41.828;23.478;2024-01-11T06:14:33;159.38;;;86.45;;
9934;SDS011;5006;41.828;23.478;2024-01-11T06:15:38;162.60;;;92.85;;
9934;SDS011;5006;41.828;23.478;2024-01-11T06:16:45;158.73;;;91.65;;
9934;SDS011;5006;41.828;23.478;2024-01-11T06:17:51;180.77;;;100.70;;
9934;SDS011;5006;41.828;23.478;2024-01-11T06:18:58;188.32;;;102.90;;
9934;SDS011;5006;41.828;23.478;2024-01-11T06:20:03;192.70;;;107.10;;
9934;SDS011;5006;41.828;23.478;2024-01-11T06:21:11;161.00;;;88.97;;
9934;SDS011;5006;41.828;23.478;2024-01-11T06:22:16;152.88;;;88.72;;
9934;SDS011;5006;41.828;23.478;2024-01-11T06:23:24;143.65;;;85.40;;
9934;SDS011;5006;41.828;23.478;2024-01-11T06:24:30;154.68;;;90.93;;
9934;SDS011;5006;41.828;23.478;2024-01-11T06:25:36;169.98;;;98.72;;
9934;SDS011;5006;41.828;23.478;2024-01-11T06:26:42;175.68;;;96.80;;
9934;SDS011;5006;41.828;23.478;2024-01-11T06:27:48;193.65;;;106.05;;
9934;SDS011;5006;41.828;23.478;2024-01-11T06:28:54;195.02;;;108.05;;
9934;SDS011;5006;41.828;23.478;2024-01-11T06:29:59;200.50;;;109.68;;
9934;SDS011;5006;41.828;23.478;2024-01-11T06:31:05;165.00;;;89.38;;
9934;SDS011;5006;41.828;23.478;2024-01-11T06:32:11;144.75;;;81.57;;
9934;SDS011;5006;41.828;23.478;2024-01-11T06:33:18;173.55;;;98.18;;
9934;SDS011;5006;41.828;23.478;2024-01-11T06:34:25;169.35;;;96.03;;
9934;SDS011;5006;41.828;23.478;2024-01-11T06:35:32;145.80;;;83.63;;
9934;SDS011;5006;41.828;23.478;2024-01-11T06:36:40;156.30;;;88.18;;
9934;SDS011;5006;41.828;23.478;2024-01-11T06:37:47;154.45;;;87.70;;
9934;SDS011;5006;41.828;23.478;2024-01-11T06:38:54;185.32;;;103.68;;
9934;SDS011;5006;41.828;23.478;2024-01-11T06:40:01;196.23;;;109.93;;